• Join FlightAware (Why Join?)
  • Login
  • US Flag 
06:46AM EDT


 

Airport Tracker/Info


-or-


 

Live Flight TrackerFlight Track Log ✈ EJA727 ✈ 25-Jun-2013 ✈ KNEW - KFTY

Flight Track Log - Related Links

Times and Time Zones

All times are in EDT time to prevent confusion due to time zone crossing. See the EJA727 flight status page for this flight to view local times or setup timezone preferences in your user account.

Time Position Orientation Groundspeed Altitude Reporting Facility
EDT Latitude Longitude Course Direction KTS MPH feet Rate Location/Type
07:25PM 30.1050 -90.0325 358° North 236 272 2,000  Level Houston Center
07:25PM 30.1408 -90.0322 360° North 228 262 2,500 3,180 Climbing Houston Center
07:26PM 30.2056 -89.9861 32° Northeast 262 302 7,200 3,900 Climbing Houston Center
07:27PM 30.2778 -89.9364 31° Northeast 283 326 10,600 2,040 Climbing Houston Center
07:28PM 30.3681 -89.8736 31° Northeast 365 420 11,500 1,080 Climbing Houston Center
07:29PM 30.4439 -89.7792 47° Northeast 389 448 12,900 1,380 Climbing Houston Center
07:30PM 30.5136 -89.6800 51° Northeast 389 448 14,400 2,100 Climbing Houston Center
07:31PM 30.5683 -89.5658 61° Northeast 406 467 17,300 2,760 Climbing Houston Center
07:33PM 30.6242 -89.4194 66° East 413 475 20,200 2,340 Climbing Houston Center
07:34PM 30.6728 -89.2903 66° East 432 497 22,200 1,920 Climbing Houston Center
07:35PM 30.7222 -89.1572 67° East 448 516 24,200 1,920 Climbing Houston Center
07:36PM 30.7731 -89.0222 66° East 454 522 26,200 1,740 Climbing Houston Center
07:37PM 30.8294 -88.8733 66° East 462 532 27,900 1,500 Climbing Houston Center
07:38PM 30.8811 -88.7347 66° East 467 537 29,400 1,200 Climbing Houston Center
07:39PM 30.9283 -88.6058 67° East 472 543 30,500 1,080 Climbing Houston Center
07:40PM 30.9922 -88.4381 66° East 473 544 31,700 1,020 Climbing Houston Center
07:41PM 31.0439 -88.2975 67° East 473 544 32,700 960 Climbing Houston Center
07:42PM 31.0939 -88.1592 67° East 468 539 33,700 900 Climbing Houston Center
07:43PM 31.1469 -88.0225 66° East 464 534 34,600 960 Climbing Houston Center
07:44PM 31.1967 -87.8869 67° East 456 525 35,700 960 Climbing Houston Center
07:45PM 31.2500 -87.7550 65° Northeast 456 525 36,600 600 Climbing Houston Center
07:46PM 31.3481 -87.6197 50° Northeast 460 529 37,000 180 Climbing Houston Center
07:47PM 31.4308 -87.5067 49° Northeast 460 529 37,000  Level Houston Center
07:48PM 31.5142 -87.3911 50° Northeast 464 534 37,000 -600 Level Houston Center
07:49PM 31.5964 -87.2764 50° Northeast 462 532 35,800 -1,440 Descending Houston Center
07:50PM 31.6822 -87.1561 50° Northeast 480 552 34,100 -1,500 Descending Houston Center
07:51PM 31.7681 -87.0378 50° Northeast 478 550 32,700 -1,680 Descending Houston Center
07:52PM 31.8767 -86.8881 49° Northeast 469 540 30,500 -1,980 Descending Atlanta Center
07:53PM 31.9628 -86.7708 49° Northeast 469 540 28,500 -1,800 Descending Atlanta Center
07:54PM 32.0506 -86.6706 44° Northeast 469 540 27,000 -1,500 Descending Atlanta Center
07:55PM 32.1425 -86.5631 45° Northeast 469 540 25,500 -1,500 Descending Atlanta Center
07:56PM 32.2303 -86.4525 47° Northeast 464 534 24,100 -780 Descending Atlanta Center
07:57PM 32.3117 -86.3442 48° Northeast 456 525 24,000 -60 Descending Atlanta Center
07:58PM 32.3969 -86.2381 46° Northeast 446 513 24,000  Level Atlanta Center
07:59PM 32.4803 -86.1342 46° Northeast 441 507 24,000  Level Atlanta Center
08:00PM 32.5697 -86.0253 46° Northeast 445 512 24,000  Level Atlanta Center
08:01PM 32.6547 -85.9214 46° Northeast 445 512 24,000 -660 Level Atlanta Center
08:02PM 32.7442 -85.8144 45° Northeast 440 506 22,700 -1,740 Descending Atlanta Center
08:03PM 32.8375 -85.7003 46° Northeast 439 505 20,600 -1,980 Descending Atlanta Center
08:04PM 32.9119 -85.6003 48° Northeast 439 505 18,800 -1,860 Descending Atlanta Center
08:05PM 32.9903 -85.5000 47° Northeast 426 490 16,900 -2,340 Descending Atlanta Center
08:07PM 33.1469 -85.3092 46° Northeast 380 437 11,900 -1,980 Descending Atlanta Center
08:08PM 33.2144 -85.2231 47° Northeast 364 419 11,000 -480 Descending Atlanta Center
08:09PM 33.2758 -85.1494 45° Northeast 323 372 11,000 -240 Level Atlanta Center
08:10PM 33.3553 -85.1181 18° North 293 337 10,600 -900 Descending Atlanta Center
08:11PM 33.4244 -85.0917 18° North 288 331 9,300 -1,560 Descending Atlanta Center
08:13PM 33.5667 -85.0167 24° Northeast 278 320 6,300 -1,620 Descending Atlanta TRACON
08:14PM 33.6167 -84.9833 29° Northeast 277 319 5,000 -1,200 Descending Atlanta TRACON
08:15PM 33.7000 -84.9333 27° Northeast 274 315 4,000 -540 Descending Atlanta TRACON
08:16PM 33.7500 -84.8833 40° Northeast 278 320 4,000 -540 Level Atlanta TRACON
08:17PM 33.7833 -84.8000 64° Northeast 251 289 3,000 -480 Descending Atlanta TRACON
08:18PM 33.7833 -84.7167 90° East 230 265 3,000  Level Atlanta TRACON
08:19PM 33.7833 -84.6500 90° East 222 255 3,000 -300 Level Atlanta TRACON
08:20PM 33.8000 -84.5667 76° East 231 266 2,400 -360 Descending Atlanta TRACON
08:21PM 33.8333 -84.5167 51° Northeast 207 238 2,300 -120 Descending Atlanta TRACON
08:22PM 33.8333 -84.4667 90° East 188 216 2,200 -420 Descending Atlanta TRACON
08:23PM 33.7833 -84.4667 180° South 148 170 1,500 -720 Descending Atlanta TRACON
08:25PM 33.7667 -84.5167 180° South  Level FlightAware Approximate
08:32PM 33.7791 -84.5214 180° South  Level Estimated